createdAt,value
2022-12-09T00:01:05.571Z,96089.69
2022-12-09T00:03:33.577Z,96089.94
2022-12-09T00:06:01.545Z,96091.06
2022-12-09T00:08:29.223Z,96087.22
2022-12-09T00:10:56.907Z,96091.59
2022-12-09T00:13:24.661Z,96092.84
2022-12-09T00:15:52.476Z,96084.22
2022-12-09T00:18:21.430Z,96088.47
2022-12-09T00:20:48.989Z,96092.81
2022-12-09T00:23:16.751Z,96084.34
2022-12-09T00:25:44.552Z,96086.41
2022-12-09T00:28:12.337Z,96083.81
2022-12-09T00:30:40.203Z,96078.06
2022-12-09T00:33:08.089Z,96080.94
2022-12-09T00:35:37.199Z,96080.50
2022-12-09T00:38:04.873Z,96077.78
2022-12-09T00:40:32.501Z,96076.28
2022-12-09T00:43:00.180Z,96079.16
2022-12-09T00:45:27.886Z,96078.75
2022-12-09T00:47:55.442Z,96070.81
2022-12-09T00:50:23.089Z,96068.63
2022-12-09T00:52:52.158Z,96062.22
2022-12-09T00:55:19.826Z,96068.91
2022-12-09T00:57:47.969Z,96065.06
2022-12-09T01:00:15.944Z,96064.38
2022-12-09T01:02:43.660Z,96070.81
2022-12-09T01:05:11.471Z,96074.38
2022-12-09T01:07:39.627Z,96072.31
2022-12-09T01:10:10.065Z,96075.47
2022-12-09T01:12:38.704Z,96076.44
2022-12-09T01:15:08.995Z,96075.75
2022-12-09T01:17:37.471Z,96079.16
2022-12-09T01:20:06.963Z,96076.28
2022-12-09T01:22:35.323Z,96077.38
2022-12-09T01:25:03.067Z,96073.56
2022-12-09T01:27:32.766Z,96075.75
2022-12-09T01:30:00.652Z,96072.72
2022-12-09T01:32:28.367Z,96072.19
2022-12-09T01:34:56.023Z,96071.91
2022-12-09T01:37:23.734Z,96057.28
2022-12-09T01:39:51.390Z,96054.00
2022-12-09T01:42:21.036Z,96049.34
2022-12-09T01:45:30.456Z,96047.41
2022-12-09T01:48:03.202Z,96044.50
2022-12-09T01:50:31.235Z,96041.09
2022-12-09T01:52:59.289Z,96033.69
2022-12-09T01:55:27.192Z,96036.03
2022-12-09T01:57:55.461Z,96032.06
2022-12-09T02:00:23.510Z,96028.13
2022-12-09T02:02:51.556Z,96032.09
2022-12-09T02:05:24.392Z,96020.75
2022-12-09T02:07:52.940Z,96025.13
2022-12-09T02:10:21.107Z,96023.91
2022-12-09T02:12:55.352Z,96016.63
2022-12-09T02:15:25.525Z,96010.50
2022-12-09T02:17:55.793Z,96015.16
2022-12-09T02:20:30.031Z,96014.34
2022-12-09T02:23:03.143Z,96013.94
2022-12-09T02:25:32.124Z,96007.09
2022-12-09T02:28:14.116Z,96006.13
2022-12-09T02:30:46.827Z,95992.03
2022-12-09T02:33:23.709Z,95994.22
2022-12-09T02:35:55.002Z,95989.06
2022-12-09T02:38:24.604Z,95989.88
2022-12-09T02:40:55.770Z,95981.41
2022-12-09T02:43:26.029Z,95986.34
2022-12-09T02:45:55.037Z,95987.97
2022-12-09T02:48:24.654Z,95985.91
2022-12-09T02:50:54.760Z,95989.06
2022-12-09T02:53:22.982Z,95993.97
2022-12-09T02:55:51.444Z,95987.00
2022-12-09T02:58:19.082Z,95995.63
2022-12-09T03:00:46.882Z,95984.56
2022-12-09T03:03:17.161Z,96002.19
2022-12-09T03:05:52.129Z,95996.88
2022-12-09T03:08:29.831Z,95993.28
2022-12-09T03:10:59.837Z,95970.06
2022-12-09T03:13:36.780Z,95973.34
2022-12-09T03:16:09.946Z,95985.91
2022-12-09T03:18:38.574Z,95982.50
2022-12-09T03:21:06.756Z,95980.16
2022-12-09T03:23:36.965Z,95979.47
2022-12-09T03:26:05.613Z,95972.66
2022-12-09T03:28:36.048Z,95962.94
2022-12-09T03:31:06.182Z,95963.09
2022-12-09T03:33:34.330Z,95957.75
2022-12-09T03:36:05.672Z,95951.88
2022-12-09T03:38:37.885Z,95951.88
2022-12-09T03:41:10.012Z,95949.84
2022-12-09T03:43:41.231Z,95948.59
2022-12-09T03:46:08.887Z,95942.72
2022-12-09T03:48:36.983Z,95945.47
2022-12-09T03:51:09.297Z,95946.69
2022-12-09T03:53:43.078Z,95953.78
2022-12-09T03:56:13.744Z,95953.78
2022-12-09T03:58:42.257Z,95957.06
2022-12-09T04:01:10.384Z,95945.19
2022-12-09T04:03:39.150Z,95961.84
2022-12-09T04:06:07.713Z,95961.84
2022-12-09T04:08:35.646Z,95951.63
2022-12-09T04:11:04.685Z,95946.16
2022-12-09T04:13:32.703Z,95939.72
2022-12-09T04:16:00.614Z,95934.41
2022-12-09T04:18:28.811Z,95932.19
2022-12-09T04:20:56.494Z,95936.59
2022-12-09T04:23:24.108Z,95934.09
2022-12-09T04:25:52.394Z,95918.28
2022-12-09T04:28:21.650Z,95926.16
2022-12-09T04:30:49.303Z,95932.19
2022-12-09T04:33:17.246Z,95939.94
2022-12-09T04:35:44.899Z,95934.63
2022-12-09T04:38:12.722Z,95929.72
2022-12-09T04:40:40.377Z,95931.22
2022-12-09T04:43:08.502Z,95936.13
2022-12-09T04:45:37.840Z,95926.69
2022-12-09T04:48:06.076Z,95928.34
2022-12-09T04:50:33.784Z,95930.41
2022-12-09T04:53:01.720Z,95942.03
2022-12-09T04:55:29.432Z,95941.34
2022-12-09T04:57:57.121Z,95935.75
2022-12-09T05:00:25.274Z,95915.53
2022-12-09T05:02:54.286Z,95915.00
2022-12-09T05:05:22.286Z,95906.47
2022-12-09T05:07:50.808Z,95908.69
2022-12-09T05:10:18.886Z,95900.50
2022-12-09T05:12:47.062Z,95899.69
2022-12-09T05:15:15.045Z,95891.50
2022-12-09T05:17:43.063Z,95886.69
2022-12-09T05:20:14.605Z,95883.31
2022-12-09T05:22:42.392Z,95887.94
2022-12-09T05:25:10.438Z,95891.50
2022-12-09T05:27:38.450Z,95884.66
2022-12-09T05:30:08.723Z,95880.69
2022-12-09T05:32:36.996Z,95883.97
2022-12-09T05:35:05.148Z,95881.66
2022-12-09T05:37:34.502Z,95874.28
2022-12-09T05:40:02.500Z,95874.94
2022-12-09T05:42:30.518Z,95882.59
2022-12-09T05:44:58.684Z,95869.34
2022-12-09T05:47:26.398Z,95862.00
2022-12-09T05:49:54.810Z,95855.28
2022-12-09T05:52:22.862Z,95866.75
2022-12-09T05:54:52.613Z,95859.78
2022-12-09T05:57:20.576Z,95863.31
2022-12-09T05:59:48.646Z,95859.38
2022-12-09T06:02:16.320Z,95858.41
2022-12-09T06:04:44.682Z,95863.03
2022-12-09T06:07:12.987Z,95850.19
2022-12-09T06:09:41.264Z,95847.59
2022-12-09T06:12:10.656Z,95851.03
2022-12-09T06:14:38.673Z,95849.13
2022-12-09T06:17:06.813Z,95842.31
2022-12-09T06:19:34.985Z,95845.84
2022-12-09T06:22:02.877Z,95842.31
2022-12-09T06:24:30.860Z,95841.72
2022-12-09T06:26:58.522Z,95844.63
2022-12-09T06:29:27.620Z,95839.44
2022-12-09T06:31:55.611Z,95842.97
2022-12-09T06:34:23.849Z,95853.66
2022-12-09T06:36:51.999Z,95852.41
2022-12-09T06:39:19.986Z,95851.31
2022-12-09T06:41:47.948Z,95835.75
2022-12-09T06:44:21.754Z,95830.03
2022-12-09T06:46:53.020Z,95833.16
2022-12-09T06:49:20.889Z,95831.25
2022-12-09T06:51:49.216Z,95832.63
2022-12-09T06:54:18.684Z,95830.16
2022-12-09T06:56:46.582Z,95834.13
2022-12-09T06:59:14.448Z,95840.66
2022-12-09T07:01:42.820Z,95827.13
2022-12-09T07:04:14.798Z,95824.97
2022-12-09T07:06:44.339Z,95828.63
2022-12-09T07:09:14.041Z,95830.84
2022-12-09T07:11:42.407Z,95823.16
2022-12-09T07:14:10.892Z,95835.88
2022-12-09T07:16:39.185Z,95823.16
2022-12-09T07:19:07.891Z,95820.84
2022-12-09T07:21:37.750Z,95837.38
2022-12-09T07:24:05.887Z,95840.94
2022-12-09T07:26:34.488Z,95840.25
2022-12-09T07:29:03.102Z,95851.19
2022-12-09T07:31:31.202Z,95844.50
2022-12-09T07:34:00.008Z,95837.69
2022-12-09T07:36:30.247Z,95829.34
2022-12-09T07:39:00.971Z,95824.72
2022-12-09T07:41:29.002Z,95826.19
2022-12-09T07:43:57.249Z,95830.44
2022-12-09T07:46:25.896Z,95828.94
2022-12-09T07:48:54.321Z,95819.25
2022-12-09T07:51:22.311Z,95823.59
2022-12-09T07:53:50.341Z,95820.72
2022-12-09T07:56:20.289Z,95824.16
2022-12-09T07:58:51.306Z,95820.34
2022-12-09T08:01:21.224Z,95815.69
2022-12-09T08:03:50.443Z,95815.28
2022-12-09T08:06:20.672Z,95820.34
2022-12-09T08:08:49.502Z,95819.09
2022-12-09T08:11:20.992Z,95810.63
2022-12-09T08:13:49.657Z,95803.69
2022-12-09T08:16:19.862Z,95801.38
2022-12-09T08:18:49.014Z,95821.28
2022-12-09T08:21:19.595Z,95811.31
2022-12-09T08:23:47.556Z,95807.63
2022-12-09T08:26:16.975Z,95801.31
2022-12-09T08:28:46.818Z,95802.69
2022-12-09T08:31:17.238Z,95784.94
2022-12-09T08:33:46.584Z,95782.34
2022-12-09T08:36:15.995Z,95784.66
2022-12-09T08:38:44.228Z,95779.72
2022-12-09T08:41:14.189Z,95789.53
2022-12-09T08:43:42.185Z,95787.34
2022-12-09T08:46:12.082Z,95776.28
2022-12-09T08:48:41.562Z,95772.88
2022-12-09T08:51:11.294Z,95773.91
2022-12-09T08:53:39.752Z,95767.63
2022-12-09T08:56:12.752Z,95768.28
2022-12-09T08:58:41.522Z,95758.03
2022-12-09T09:01:17.281Z,95752.53
2022-12-09T09:03:46.009Z,95754.16
2022-12-09T09:06:14.601Z,95759.44
2022-12-09T09:08:43.446Z,95759.97
2022-12-09T09:11:11.824Z,95761.72
2022-12-09T09:13:40.800Z,95756.88
2022-12-09T09:16:11.526Z,95762.03
2022-12-09T09:18:41.172Z,95754.25
2022-12-09T09:21:10.412Z,95751.06
2022-12-09T09:23:38.774Z,95752.56
2022-12-09T09:26:07.014Z,95735.47
2022-12-09T09:28:35.491Z,95734.94
2022-12-09T09:31:05.395Z,95735.84
2022-12-09T09:33:33.382Z,95735.47
2022-12-09T09:36:09.624Z,95728.94
2022-12-09T09:38:37.782Z,95726.78
2022-12-09T09:41:11.365Z,95719.56
2022-12-09T09:43:39.711Z,95717.34
2022-12-09T09:46:07.424Z,95719.94
2022-12-09T09:48:37.490Z,95720.84
2022-12-09T09:51:09.846Z,95715.69
2022-12-09T09:53:37.801Z,95697.94
2022-12-09T09:56:08.329Z,95694.38
2022-12-09T09:58:40.637Z,95699.00
2022-12-09T10:01:10.813Z,95684.03
2022-12-09T10:03:52.167Z,95685.91
2022-12-09T10:06:33.941Z,95689.16
2022-12-09T10:09:05.045Z,95678.81
2022-12-09T10:11:39.480Z,95682.00
2022-12-09T10:14:15.679Z,95679.53
2022-12-09T10:16:45.852Z,95676.97
2022-12-09T10:19:19.853Z,95674.34
2022-12-09T10:21:50.668Z,95660.94
2022-12-09T10:24:25.065Z,95666.50
2022-12-09T10:26:58.755Z,95655.72
2022-12-09T10:29:38.876Z,95660.72
2022-12-09T10:32:09.082Z,95655.41
2022-12-09T10:34:37.339Z,95649.44
2022-12-09T10:37:06.517Z,95664.53
2022-12-09T10:39:34.951Z,95663.03
2022-12-09T10:42:20.212Z,95663.75
2022-12-09T10:44:49.098Z,95658.06
2022-12-09T10:47:26.074Z,95649.66
2022-12-09T10:49:55.401Z,95646.41
2022-12-09T10:52:25.898Z,95646.44
2022-12-09T10:54:54.607Z,95641.31
2022-12-09T10:57:25.866Z,95641.50
2022-12-09T11:00:00.099Z,95650.84
2022-12-09T11:02:30.270Z,95645.59
2022-12-09T11:05:22.115Z,95647.47
2022-12-09T11:07:53.340Z,95649.00
2022-12-09T11:10:25.094Z,95632.53
2022-12-09T11:12:55.510Z,95634.47
2022-12-09T11:15:27.360Z,95628.91
2022-12-09T11:17:58.544Z,95624.19
2022-12-09T11:20:28.578Z,95623.81
2022-12-09T11:23:04.416Z,95621.56
2022-12-09T11:25:34.525Z,95611.78
2022-12-09T11:28:04.892Z,95601.34
2022-12-09T11:30:35.713Z,95593.88
2022-12-09T11:33:09.731Z,95591.06
2022-12-09T11:35:41.003Z,95580.97
2022-12-09T11:38:23.897Z,95581.19
2022-12-09T11:41:05.660Z,95573.06
2022-12-09T11:43:37.387Z,95574.88
2022-12-09T11:46:16.482Z,95569.16
2022-12-09T11:48:50.820Z,95563.63
2022-12-09T11:51:22.226Z,95557.09
2022-12-09T11:53:54.107Z,95555.47
2022-12-09T11:56:26.668Z,95550.63
2022-12-09T11:58:58.413Z,95550.44
2022-12-09T12:01:33.548Z,95539.03
2022-12-09T12:04:05.160Z,95544.09
2022-12-09T12:06:37.993Z,95546.38
2022-12-09T12:09:11.323Z,95555.50
2022-12-09T12:11:42.938Z,95557.13
2022-12-09T12:14:15.117Z,95555.50
2022-12-09T12:16:48.923Z,95556.63
2022-12-09T12:19:21.039Z,95541.16
2022-12-09T12:22:02.380Z,95538.53
2022-12-09T12:25:02.191Z,95541.97
2022-12-09T12:27:41.751Z,95544.06
2022-12-09T12:30:11.572Z,95538.84
2022-12-09T12:33:40.880Z,95549.47
2022-12-09T12:35:50.548Z,95552.72
2022-12-09T12:38:23.650Z,95545.72
2022-12-09T12:40:56.449Z,95533.03
2022-12-09T12:43:56.284Z,95520.66
2022-12-09T12:46:31.552Z,95505.00
2022-12-09T12:49:12.975Z,95506.28
2022-12-09T12:51:49.743Z,95500.06
2022-12-09T12:54:26.207Z,95487.34
2022-12-09T12:57:09.418Z,95501.09
2022-12-09T12:59:43.511Z,95501.88
2022-12-09T13:02:24.345Z,95497.00
2022-12-09T13:04:56.681Z,95490.81
2022-12-09T13:07:30.348Z,95494.88
2022-12-09T13:10:02.140Z,95502.56
2022-12-09T13:12:52.019Z,95507.59
2022-12-09T13:15:21.498Z,95518.69
2022-12-09T13:17:49.723Z,95519.50
2022-12-09T13:20:22.139Z,95527.31
2022-12-09T13:22:56.235Z,95513.59
2022-12-09T13:25:30.524Z,95508.91
2022-12-09T13:28:04.904Z,95509.69
2022-12-09T13:30:37.378Z,95501.41
2022-12-09T13:33:28.466Z,95502.22
2022-12-09T13:36:02.783Z,95498.13
2022-12-09T13:38:39.735Z,95500.41
2022-12-09T13:41:53.159Z,95496.53
2022-12-09T13:44:22.254Z,95504.66
2022-12-09T13:46:50.419Z,95499.78
2022-12-09T13:49:20.667Z,95497.19
2022-12-09T13:51:51.559Z,95502.53
2022-12-09T13:54:20.872Z,95502.72
2022-12-09T13:57:02.009Z,95503.84
2022-12-09T13:59:39.875Z,95510.53
2022-12-09T14:02:15.261Z,95508.06
2022-12-09T14:04:49.920Z,95502.69
2022-12-09T14:07:23.576Z,95505.47
2022-12-09T14:09:54.351Z,95509.88
2022-12-09T14:12:55.260Z,95502.38
2022-12-09T14:15:47.481Z,95488.00
2022-12-09T14:18:31.326Z,95488.34
2022-12-09T14:21:25.473Z,95492.41
2022-12-09T14:24:29.752Z,95499.41
2022-12-09T14:27:13.102Z,95496.31
2022-12-09T14:29:45.949Z,95499.25
2022-12-09T14:32:30.365Z,95497.75
2022-12-09T14:35:08.558Z,95514.22
2022-12-09T14:37:43.792Z,95513.56
2022-12-09T14:40:26.187Z,95509.03
2022-12-09T14:42:56.857Z,95515.69
2022-12-09T14:45:32.178Z,95517.03
2022-12-09T14:48:01.141Z,95517.50
2022-12-09T14:50:29.553Z,95503.69
2022-12-09T14:53:00.597Z,95504.97
2022-12-09T14:55:30.327Z,95499.59
2022-12-09T14:57:59.910Z,95513.09
2022-12-09T15:00:30.447Z,95511.63
2022-12-09T15:03:30.578Z,95514.56
2022-12-09T15:06:00.113Z,95519.75
2022-12-09T15:08:29.503Z,95517.63
2022-12-09T15:10:57.262Z,95513.19
2022-12-09T15:13:25.928Z,95510.44
2022-12-09T15:15:54.040Z,95511.25
2022-12-09T15:18:23.687Z,95517.59
2022-12-09T15:20:53.542Z,95517.41
2022-12-09T15:23:24.096Z,95519.09
2022-12-09T15:25:53.140Z,95523.66
2022-12-09T15:28:26.321Z,95519.75
2022-12-09T15:30:56.476Z,95530.47
2022-12-09T15:33:24.507Z,95531.09
2022-12-09T15:35:55.604Z,95538.75
2022-12-09T15:38:25.793Z,95539.19
2022-12-09T15:41:12.965Z,95533.69
2022-12-09T15:43:40.962Z,95541.59
2022-12-09T15:46:08.622Z,95549.03
2022-12-09T15:48:40.906Z,95543.50
2022-12-09T15:51:11.692Z,95554.69
2022-12-09T15:53:43.068Z,95559.09
2022-12-09T15:56:13.794Z,95565.91
2022-12-09T15:58:44.433Z,95559.22
2022-12-09T16:01:19.647Z,95555.81
2022-12-09T16:03:50.168Z,95551.28
2022-12-09T16:06:17.865Z,95564.59
2022-12-09T16:08:46.786Z,95552.84
2022-12-09T16:11:14.992Z,95553.81
2022-12-09T16:13:57.701Z,95550.41
2022-12-09T16:16:29.356Z,95553.81
2022-12-09T16:18:57.087Z,95547.44
2022-12-09T16:21:27.995Z,95551.34
2022-12-09T16:24:06.801Z,95552.66
2022-12-09T16:26:37.725Z,95565.50
2022-12-09T16:29:07.528Z,95566.41
2022-12-09T16:31:35.236Z,95564.34
2022-12-09T16:34:02.851Z,95554.25
2022-12-09T16:36:31.977Z,95551.47
2022-12-09T16:39:35.282Z,95548.38
2022-12-09T16:42:04.339Z,95558.31
2022-12-09T16:44:34.435Z,95559.44
2022-12-09T16:47:12.031Z,95560.91
2022-12-09T16:49:41.540Z,95565.78
2022-12-09T16:52:12.520Z,95568.41
2022-12-09T16:54:46.297Z,95576.19
2022-12-09T16:57:18.028Z,95578.16
2022-12-09T16:59:46.141Z,95573.28
2022-12-09T17:02:22.598Z,95575.22
2022-12-09T17:04:52.423Z,95577.34
2022-12-09T17:07:20.083Z,95572.94
2022-12-09T17:09:47.692Z,95577.34
2022-12-09T17:12:16.697Z,95575.44
2022-12-09T17:14:44.347Z,95579.16
2022-12-09T17:17:12.016Z,95580.09
2022-12-09T17:19:41.760Z,95583.50
2022-12-09T17:22:09.446Z,95587.84
2022-12-09T17:24:37.416Z,95591.72
2022-12-09T17:27:05.233Z,95595.28
2022-12-09T17:29:35.193Z,95593.78
2022-12-09T17:32:02.904Z,95602.72
2022-12-09T17:34:30.621Z,95606.22
2022-12-09T17:36:58.394Z,95609.16
2022-12-09T17:39:26.880Z,95609.03
2022-12-09T17:41:54.518Z,95610.00
2022-12-09T17:44:22.319Z,95609.03
2022-12-09T17:46:51.507Z,95598.03
2022-12-09T17:49:19.660Z,95612.06
2022-12-09T17:51:47.948Z,95607.84
2022-12-09T17:54:15.577Z,95617.50
2022-12-09T17:56:43.231Z,95621.28
2022-12-09T17:59:14.174Z,95622.34
2022-12-09T18:01:43.859Z,95635.25
2022-12-09T18:04:13.758Z,95627.91
2022-12-09T18:06:43.706Z,95632.13
2022-12-09T18:09:12.887Z,95629.53
2022-12-09T18:11:40.793Z,95630.13
2022-12-09T18:14:09.799Z,95634.91
2022-12-09T18:16:38.959Z,95632.97
2022-12-09T18:19:09.831Z,95632.56
2022-12-09T18:21:38.904Z,95636.00
2022-12-09T18:24:06.979Z,95652.81
2022-12-09T18:26:39.902Z,95649.13
2022-12-09T18:29:09.142Z,95646.63
2022-12-09T18:31:37.489Z,95651.00
2022-12-09T18:34:05.783Z,95645.66
2022-12-09T18:36:33.426Z,95645.34
2022-12-09T18:39:02.583Z,95651.22
2022-12-09T18:41:31.441Z,95638.34
2022-12-09T18:44:00.575Z,95639.84
2022-12-09T18:46:30.062Z,95635.31
2022-12-09T18:48:58.786Z,95637.75
2022-12-09T18:51:26.702Z,95640.09
2022-12-09T18:53:54.553Z,95644.34
2022-12-09T18:56:23.919Z,95651.84
2022-12-09T18:59:08.685Z,95662.66
2022-12-09T19:01:39.728Z,95658.38
2022-12-09T19:04:09.741Z,95654.94
2022-12-09T19:06:38.774Z,95654.94
2022-12-09T19:09:09.463Z,95660.00
2022-12-09T19:11:39.679Z,95661.25
2022-12-09T19:14:08.570Z,95663.56
2022-12-09T19:16:36.425Z,95676.50
2022-12-09T19:19:09.670Z,95659.75
2022-12-09T19:21:38.142Z,95661.63
2022-12-09T19:24:06.935Z,95670.53
2022-12-09T19:26:36.386Z,95671.56
2022-12-09T19:29:07.799Z,95678.34
2022-12-09T19:31:37.100Z,95688.66
2022-12-09T19:34:07.060Z,95688.72
2022-12-09T19:36:35.142Z,95684.44
2022-12-09T19:39:03.360Z,95672.53
2022-12-09T19:41:30.957Z,95687.56
2022-12-09T19:43:59.854Z,95688.53
2022-12-09T19:46:29.461Z,95689.31
2022-12-09T19:48:58.175Z,95690.97
2022-12-09T19:51:26.842Z,95696.22
2022-12-09T19:53:55.109Z,95693.88
2022-12-09T19:56:23.200Z,95690.06
2022-12-09T19:58:51.395Z,95693.44
2022-12-09T20:01:21.002Z,95696.03
2022-12-09T20:03:51.342Z,95695.38
2022-12-09T20:06:21.265Z,95698.63
2022-12-09T20:08:49.457Z,95698.09
2022-12-09T20:11:20.126Z,95697.13
2022-12-09T20:13:48.196Z,95691.19
2022-12-09T20:16:18.710Z,95701.13
2022-12-09T20:18:48.360Z,95708.66
2022-12-09T20:21:19.274Z,95708.13
2022-12-09T20:23:47.302Z,95715.09
2022-12-09T20:26:16.441Z,95714.97
2022-12-09T20:28:45.787Z,95710.38
2022-12-09T20:31:18.929Z,95713.63
2022-12-09T20:33:47.122Z,95712.00
2022-12-09T20:36:18.411Z,95704.63
2022-12-09T20:38:49.499Z,95706.81
2022-12-09T20:41:17.214Z,95710.81
2022-12-09T20:43:47.546Z,95703.97
2022-12-09T20:46:17.174Z,95701.38
2022-12-09T20:48:45.179Z,95703.84
2022-12-09T20:51:15.584Z,95705.91
2022-12-09T20:53:45.746Z,95708.38
2022-12-09T20:56:14.370Z,95705.00
2022-12-09T20:58:43.133Z,95717.22
2022-12-09T21:01:16.334Z,95722.72
2022-12-09T21:03:44.257Z,95715.41
2022-12-09T21:06:13.090Z,95718.38
2022-12-09T21:08:40.895Z,95710.44
2022-12-09T21:11:12.324Z,95710.75
2022-12-09T21:13:41.796Z,95715.09
2022-12-09T21:16:12.315Z,95711.69
2022-12-09T21:18:40.153Z,95723.38
2022-12-09T21:21:07.783Z,95717.13
2022-12-09T21:23:36.050Z,95722.09
2022-12-09T21:26:05.623Z,95722.09
2022-12-09T21:28:34.976Z,95717.78
2022-12-09T21:31:08.401Z,95712.94
2022-12-09T21:33:36.402Z,95730.47
2022-12-09T21:36:06.435Z,95733.50
2022-12-09T21:38:34.523Z,95735.66
2022-12-09T21:41:04.133Z,95732.41
2022-12-09T21:43:34.029Z,95741.91
2022-12-09T21:46:03.326Z,95735.03
2022-12-09T21:48:31.056Z,95742.25
2022-12-09T21:51:00.083Z,95748.78
2022-12-09T21:53:27.997Z,95750.47
2022-12-09T21:55:55.945Z,95753.06
2022-12-09T21:58:23.520Z,95767.56
2022-12-09T22:00:52.549Z,95760.44
2022-12-09T22:03:20.247Z,95753.84
2022-12-09T22:05:48.041Z,95755.47
2022-12-09T22:08:15.680Z,95753.00
2022-12-09T22:10:43.664Z,95764.75
2022-12-09T22:13:11.262Z,95757.63
2022-12-09T22:15:38.864Z,95758.75
2022-12-09T22:18:07.847Z,95762.69
2022-12-09T22:23:23.731Z,95766.25
2022-12-09T22:25:51.771Z,95755.69
2022-12-09T22:28:19.342Z,95762.53
2022-12-09T22:30:46.999Z,95765.41
2022-12-09T22:33:15.954Z,95772.03
2022-12-09T22:35:43.618Z,95775.97
2022-12-09T22:38:14.606Z,95771.28
2022-12-09T22:40:43.118Z,95780.94
2022-12-09T22:43:10.834Z,95785.84
2022-12-09T22:45:38.915Z,95783.25
2022-12-09T22:48:07.488Z,95780.72
2022-12-09T22:50:37.330Z,95785.63
2022-12-09T22:53:04.922Z,95778.13
2022-12-09T22:55:32.486Z,95779.09
2022-12-09T22:58:00.455Z,95768.03
2022-12-09T23:00:28.062Z,95767.06
2022-12-09T23:02:55.722Z,95768.84
2022-12-09T23:05:23.577Z,95772.91
2022-12-09T23:07:52.537Z,95763.78
2022-12-09T23:10:20.164Z,95763.66
2022-12-09T23:12:47.760Z,95771.75
2022-12-09T23:15:15.520Z,95774.09
2022-12-09T23:17:43.189Z,95777.09
2022-12-09T23:20:11.613Z,95765.94
2022-12-09T23:22:39.181Z,95767.41
2022-12-09T23:25:09.329Z,95760.28
2022-12-09T23:27:37.041Z,95770.84
2022-12-09T23:30:05.983Z,95774.09
2022-12-09T23:32:33.801Z,95761.63
2022-12-09T23:35:07.132Z,95763.13
2022-12-09T23:37:35.196Z,95762.88
2022-12-09T23:40:02.777Z,95754.69
2022-12-09T23:42:31.693Z,95750.63
2022-12-09T23:44:59.285Z,95759.00
2022-12-09T23:47:26.869Z,95752.56
2022-12-09T23:49:54.612Z,95755.22
2022-12-09T23:52:22.237Z,95756.75
2022-12-09T23:54:49.850Z,95757.22
2022-12-09T23:57:17.451Z,95750.38
2022-12-09T23:59:46.352Z,95751.34
